Cuyahoga County Airport Cleveland US
ICAO: KCGF
IATA: CGF
Category: Medium
Scheduled Services: No

Elevation: 879 ft
TransAlt. 18000 ft.

Airport Communications:
CLEVELAND APP/DEP:125.35
CTAF:118.5
GND/CLNC DEL:121.85
COUNTY TWR:118.5
UNICOM:122.95

KCGF Zoom In..

Runways:

(A) RW 06 length 5102 ft width 100 ft
---- / hdg 57

(B) RW 24 length 5102 ft width 100 ft
ILS 111.10 / hdg 237

Location; KCGF
Day. 23 / Time. 14.45 Zulu
* Altimeter: 29.62
* Temperature: 05° c. 41°f.
* Wind from: 240° Speed 15 kn with Gusts up to 20 kn.
Dewpoint: 01° c.
Visibility: 8 Statute Miles.
Clouds: Broken 2700 ft.
Clouds: Overcast 4000 ft.

KCGF 231445Z 24015G20KT 8SM BKN027 OVC040 05/01 A2962


Wind From 240°
Speed 15 kn.

YouTube Music Video
 
jpsmedia.com for Web Design  worldairports.se 2018   terms of use